Terminal Aerodrome Forecast
Issued by NWS Nashville, TN

Home | Current Version | Previous Version | Text Only | Print | Product List | Glossary On
Versions: 1 2 3 4 5 6 7 8 9 10 11 12
714
FTUS44 KOHX 231721
TAFBNA
TAF
KBNA 231721Z 2318/2418 23010KT P6SM BKN050
     FM240000 22004KT P6SM VCTS BKN040CB PROB30 2403/2407 4SM TSRA
      OVC025CB
     FM240700 23004KT 5SM BR SCT020 BKN080
      TEMPO 2408/2412 3SM BR BKN020
     FM241200 23004KT 5SM HZ SCT025 BKN200=

USA.gov is the U.S. government's official web portal to all federal, state and local government web resources and services.